CAL166 RCKH-RJBB
Flight info
| Callsign | CAL166 |
|---|---|
| Flight time | 2h 39m |
| Altitude | 37000 |
| Route | TNN1H TNN W4 ANLOT M750 MOLKA/N0450F390 M750 MADOG Y53 NIXOV |
| Aircraft | B738/M-SDE2E3FGHIRWXY/LB1 |
Departure
| Time | 2026-05-03 20:16 |
|---|---|
| Airport | Kaohsiung International Airport (RCKH) |
Arrival
| Time | 2026-05-03 22:55 |
|---|---|
| Airport | Kansai International Airport (RJBB) |
| Time | Latitude | Longitude | Altitude | Speed | Heading |
|---|---|---|---|---|---|
| 2026-05-03 20:15 | 22.57682 | 120.35840 | 38 ft | 8 kts | 271° |
| 2026-05-03 20:15 | 22.57690 | 120.35610 | 36 ft | 66 kts | 272° |
| 2026-05-03 20:15 | 22.57713 | 120.34855 | 38 ft | 132 kts | 273° |
| 2026-05-03 20:15 | 22.57761 | 120.33716 | 375 ft | 157 kts | 274° |
| 2026-05-03 20:16 | 22.57768 | 120.32484 | 1045 ft | 169 kts | 274° |
| 2026-05-03 20:16 | 22.57806 | 120.31228 | 1783 ft | 172 kts | 277° |
| 2026-05-03 20:16 | 22.57857 | 120.29848 | 2188 ft | 199 kts | 276° |
| 2026-05-03 20:16 | 22.57914 | 120.28250 | 2428 ft | 225 kts | 276° |
| 2026-05-03 20:17 | 22.57972 | 120.26487 | 2709 ft | 242 kts | 275° |
| 2026-05-03 20:17 | 22.58027 | 120.24645 | 3269 ft | 246 kts | 275° |
| 2026-05-03 20:17 | 22.58082 | 120.22792 | 3922 ft | 248 kts | 275° |
| 2026-05-03 20:17 | 22.58138 | 120.20912 | 4516 ft | 254 kts | 275° |
| 2026-05-03 20:18 | 22.58406 | 120.18966 | 4907 ft | 268 kts | 295° |
| 2026-05-03 20:18 | 22.59508 | 120.17373 | 5669 ft | 266 kts | 324° |
| 2026-05-03 20:18 | 22.61198 | 120.16636 | 6510 ft | 269 kts | 352° |
| 2026-05-03 20:18 | 22.63096 | 120.16659 | 7127 ft | 278 kts | 1° |
| 2026-05-03 20:19 | 22.65057 | 120.16811 | 7722 ft | 286 kts | 2° |
| 2026-05-03 20:19 | 22.67070 | 120.16989 | 8348 ft | 293 kts | 2° |
| 2026-05-03 20:19 | 22.69115 | 120.17168 | 9023 ft | 298 kts | 1° |
| 2026-05-03 20:19 | 22.71200 | 120.17346 | 9705 ft | 303 kts | 1° |
| 2026-05-03 20:20 | 22.73317 | 120.17520 | 10333 ft | 309 kts | 1° |
| 2026-05-03 20:20 | 22.75540 | 120.17695 | 10515 ft | 332 kts | 1° |
| 2026-05-03 20:20 | 22.77915 | 120.17878 | 10729 ft | 351 kts | 1° |
| 2026-05-03 20:20 | 22.80389 | 120.18069 | 11179 ft | 360 kts | 1° |
| 2026-05-03 20:21 | 22.82861 | 120.18260 | 11808 ft | 362 kts | 0° |
| 2026-05-03 20:21 | 22.85378 | 120.18455 | 12509 ft | 364 kts | 0° |
| 2026-05-03 20:21 | 22.87920 | 120.18649 | 13135 ft | 369 kts | 0° |
| 2026-05-03 20:21 | 22.90532 | 120.18848 | 13758 ft | 374 kts | 360° |
| 2026-05-03 20:22 | 22.92260 | 120.18980 | 14125 ft | 377 kts | 360° |
| 2026-05-03 20:22 | 22.95752 | 120.19245 | 14927 ft | 382 kts | 360° |
| 2026-05-03 20:22 | 22.98416 | 120.19448 | 15554 ft | 385 kts | 359° |
| 2026-05-03 20:22 | 23.00225 | 120.19586 | 15950 ft | 388 kts | 359° |
| 2026-05-03 20:23 | 23.02937 | 120.19793 | 16559 ft | 392 kts | 359° |
| 2026-05-03 20:23 | 23.05671 | 120.20001 | 17143 ft | 396 kts | 359° |
| 2026-05-03 20:23 | 23.08436 | 120.20212 | 17727 ft | 400 kts | 359° |
| 2026-05-03 20:23 | 23.11227 | 120.20424 | 18287 ft | 404 kts | 359° |
| 2026-05-03 20:24 | 23.14042 | 120.20730 | 18761 ft | 413 kts | 8° |
| 2026-05-03 20:24 | 23.16824 | 120.21607 | 19276 ft | 419 kts | 14° |
| 2026-05-03 20:24 | 23.19595 | 120.22636 | 19777 ft | 422 kts | 15° |
| 2026-05-03 20:24 | 23.22346 | 120.23689 | 20253 ft | 426 kts | 15° |
| 2026-05-03 20:25 | 23.25158 | 120.24759 | 20733 ft | 430 kts | 15° |
| 2026-05-03 20:25 | 23.27992 | 120.25821 | 21220 ft | 433 kts | 14° |
| 2026-05-03 20:25 | 23.30852 | 120.26876 | 21697 ft | 436 kts | 14° |
| 2026-05-03 20:25 | 23.33743 | 120.27932 | 22168 ft | 439 kts | 14° |
| 2026-05-03 20:26 | 23.36649 | 120.28988 | 22635 ft | 443 kts | 14° |
| 2026-05-03 20:26 | 23.39586 | 120.30053 | 23088 ft | 446 kts | 14° |
| 2026-05-03 20:26 | 23.42541 | 120.31125 | 23521 ft | 449 kts | 14° |
| 2026-05-03 20:26 | 23.45512 | 120.32204 | 23914 ft | 452 kts | 14° |
| 2026-05-03 20:27 | 23.48508 | 120.33294 | 24311 ft | 454 kts | 14° |
| 2026-05-03 20:27 | 23.51504 | 120.34385 | 24698 ft | 456 kts | 14° |
| 2026-05-03 20:27 | 23.54517 | 120.35483 | 25100 ft | 457 kts | 14° |
| 2026-05-03 20:27 | 23.57550 | 120.36587 | 25485 ft | 459 kts | 14° |
| 2026-05-03 20:28 | 23.60583 | 120.37692 | 25856 ft | 462 kts | 14° |
| 2026-05-03 20:28 | 23.63638 | 120.38805 | 26213 ft | 464 kts | 14° |
| 2026-05-03 20:28 | 23.66703 | 120.39923 | 26574 ft | 466 kts | 14° |
| 2026-05-03 20:28 | 23.69789 | 120.41049 | 26931 ft | 468 kts | 14° |
| 2026-05-03 20:29 | 23.72886 | 120.42180 | 27276 ft | 470 kts | 14° |
| 2026-05-03 20:29 | 23.75995 | 120.43316 | 27617 ft | 472 kts | 14° |
| 2026-05-03 20:29 | 23.79084 | 120.44446 | 27931 ft | 475 kts | 14° |
| 2026-05-03 20:29 | 23.82226 | 120.45596 | 28263 ft | 477 kts | 14° |
| 2026-05-03 20:30 | 23.85376 | 120.46748 | 28580 ft | 478 kts | 14° |
| 2026-05-03 20:30 | 23.88504 | 120.48044 | 28868 ft | 485 kts | 21° |
| 2026-05-03 20:30 | 23.91467 | 120.49846 | 29167 ft | 491 kts | 30° |
| 2026-05-03 20:30 | 23.94190 | 120.52133 | 29467 ft | 497 kts | 40° |
| 2026-05-03 20:31 | 23.96704 | 120.54750 | 29786 ft | 500 kts | 42° |
| 2026-05-03 20:31 | 23.99184 | 120.57432 | 30063 ft | 502 kts | 42° |
| 2026-05-03 20:31 | 24.01659 | 120.60131 | 30298 ft | 504 kts | 42° |
| 2026-05-03 20:31 | 24.04152 | 120.62833 | 30535 ft | 506 kts | 42° |
| 2026-05-03 20:32 | 24.06670 | 120.65534 | 30752 ft | 508 kts | 41° |
| 2026-05-03 20:32 | 24.09206 | 120.68232 | 30970 ft | 509 kts | 41° |
| 2026-05-03 20:32 | 24.11763 | 120.70938 | 31199 ft | 511 kts | 41° |
| 2026-05-03 20:32 | 24.14324 | 120.73644 | 31436 ft | 512 kts | 41° |
| 2026-05-03 20:33 | 24.16889 | 120.76356 | 31718 ft | 512 kts | 41° |
| 2026-05-03 20:33 | 24.19447 | 120.79064 | 32054 ft | 511 kts | 40° |
| 2026-05-03 20:33 | 24.21999 | 120.81768 | 32379 ft | 510 kts | 40° |
| 2026-05-03 20:33 | 24.24551 | 120.84475 | 32654 ft | 511 kts | 40° |
| 2026-05-03 20:34 | 24.27100 | 120.87181 | 32962 ft | 510 kts | 40° |
| 2026-05-03 20:34 | 24.29653 | 120.89892 | 33273 ft | 510 kts | 40° |
| 2026-05-03 20:34 | 24.32198 | 120.92598 | 33593 ft | 510 kts | 40° |
| 2026-05-03 20:34 | 24.34740 | 120.95301 | 33929 ft | 509 kts | 40° |
| 2026-05-03 20:35 | 24.37283 | 120.98007 | 34192 ft | 509 kts | 40° |
| 2026-05-03 20:35 | 24.39823 | 121.00711 | 34456 ft | 509 kts | 40° |
| 2026-05-03 20:35 | 24.42314 | 121.03472 | 34767 ft | 510 kts | 45° |
| 2026-05-03 20:35 | 24.44596 | 121.06449 | 35060 ft | 511 kts | 47° |
| 2026-05-03 20:36 | 24.46803 | 121.09511 | 35328 ft | 511 kts | 49° |
| 2026-05-03 20:36 | 24.48954 | 121.12562 | 35607 ft | 510 kts | 49° |
| 2026-05-03 20:36 | 24.51117 | 121.15635 | 35901 ft | 509 kts | 49° |
| 2026-05-03 20:36 | 24.53297 | 121.18706 | 36026 ft | 510 kts | 48° |
| 2026-05-03 20:37 | 24.55493 | 121.21768 | 36185 ft | 511 kts | 48° |
| 2026-05-03 20:37 | 24.57702 | 121.24823 | 36328 ft | 512 kts | 47° |
| 2026-05-03 20:37 | 24.59920 | 121.27882 | 36565 ft | 511 kts | 47° |
| 2026-05-03 20:37 | 24.62134 | 121.30938 | 36837 ft | 510 kts | 47° |
| 2026-05-03 20:38 | 24.64335 | 121.33980 | 37032 ft | 509 kts | 47° |
| 2026-05-03 20:38 | 24.68741 | 121.40081 | 37076 ft | 512 kts | 47° |
| 2026-05-03 20:39 | 24.73173 | 121.46219 | 37034 ft | 512 kts | 48° |
| 2026-05-03 20:39 | 24.77576 | 121.52330 | 37075 ft | 506 kts | 47° |
| 2026-05-03 20:40 | 24.81947 | 121.58407 | 37037 ft | 505 kts | 48° |
| 2026-05-03 20:40 | 24.86306 | 121.64471 | 37055 ft | 506 kts | 48° |
| 2026-05-03 20:41 | 24.90684 | 121.70546 | 37084 ft | 506 kts | 47° |
| 2026-05-03 20:41 | 24.95283 | 121.76448 | 37064 ft | 508 kts | 44° |
| 2026-05-03 20:42 | 24.99930 | 121.82264 | 37049 ft | 511 kts | 44° |
| 2026-05-03 20:42 | 25.04591 | 121.88187 | 37065 ft | 513 kts | 45° |
| 2026-05-03 20:43 | 25.09259 | 121.94172 | 37052 ft | 515 kts | 45° |
| 2026-05-03 20:43 | 25.13932 | 122.00165 | 37055 ft | 516 kts | 45° |
| 2026-05-03 20:44 | 25.18597 | 122.06191 | 37053 ft | 516 kts | 45° |
| 2026-05-03 20:44 | 25.23255 | 122.12235 | 37048 ft | 516 kts | 45° |
| 2026-05-03 20:45 | 25.27907 | 122.18276 | 37053 ft | 516 kts | 45° |
| 2026-05-03 20:45 | 25.32551 | 122.24311 | 37050 ft | 515 kts | 45° |
| 2026-05-03 20:46 | 25.37186 | 122.30340 | 37052 ft | 514 kts | 45° |
| 2026-05-03 20:46 | 25.41814 | 122.36369 | 37047 ft | 514 kts | 45° |
| 2026-05-03 20:47 | 25.46440 | 122.42402 | 37051 ft | 513 kts | 45° |
| 2026-05-03 20:47 | 25.51026 | 122.48392 | 37048 ft | 513 kts | 45° |
| 2026-05-03 20:48 | 25.55652 | 122.54405 | 37052 ft | 512 kts | 45° |
| 2026-05-03 20:48 | 25.60284 | 122.60411 | 37051 ft | 512 kts | 45° |
| 2026-05-03 20:49 | 25.64909 | 122.66423 | 37057 ft | 513 kts | 45° |
| 2026-05-03 20:49 | 25.69534 | 122.72448 | 37057 ft | 513 kts | 45° |
| 2026-05-03 20:50 | 25.74164 | 122.78488 | 37061 ft | 514 kts | 45° |
| 2026-05-03 20:50 | 25.78762 | 122.84495 | 37060 ft | 514 kts | 45° |
| 2026-05-03 20:51 | 25.83401 | 122.90564 | 37061 ft | 515 kts | 45° |
| 2026-05-03 20:51 | 25.88032 | 122.96629 | 37057 ft | 515 kts | 45° |
| 2026-05-03 20:52 | 25.92670 | 123.02712 | 37064 ft | 516 kts | 45° |
| 2026-05-03 20:52 | 25.97304 | 123.08804 | 37064 ft | 516 kts | 45° |
| 2026-05-03 20:53 | 26.01937 | 123.14905 | 37060 ft | 516 kts | 46° |
| 2026-05-03 20:53 | 26.06567 | 123.21010 | 37062 ft | 517 kts | 46° |
| 2026-05-03 20:54 | 26.11203 | 123.27132 | 37066 ft | 517 kts | 46° |
| 2026-05-03 20:54 | 26.18145 | 123.36314 | 37063 ft | 516 kts | 46° |
| 2026-05-03 20:55 | 26.22767 | 123.42438 | 37067 ft | 516 kts | 46° |
| 2026-05-03 20:55 | 26.27388 | 123.48570 | 37062 ft | 516 kts | 46° |
| 2026-05-03 20:56 | 26.31976 | 123.54664 | 37079 ft | 516 kts | 46° |
| 2026-05-03 20:56 | 26.36584 | 123.60795 | 37064 ft | 516 kts | 46° |
| 2026-05-03 20:57 | 26.41189 | 123.66930 | 37067 ft | 516 kts | 46° |
| 2026-05-03 20:57 | 26.45788 | 123.73065 | 37071 ft | 516 kts | 46° |
| 2026-05-03 20:58 | 26.50393 | 123.79217 | 37073 ft | 516 kts | 46° |
| 2026-05-03 20:58 | 26.54995 | 123.85373 | 37074 ft | 517 kts | 46° |
| 2026-05-03 20:59 | 26.59597 | 123.91538 | 37074 ft | 517 kts | 46° |
| 2026-05-03 20:59 | 26.64201 | 123.97716 | 37073 ft | 518 kts | 46° |
| 2026-05-03 21:00 | 26.67288 | 124.01858 | 37072 ft | 518 kts | 46° |
| 2026-05-03 21:00 | 26.73444 | 124.10104 | 37078 ft | 519 kts | 46° |
| 2026-05-03 21:01 | 26.78068 | 124.16307 | 37080 ft | 520 kts | 46° |
| 2026-05-03 21:01 | 26.82695 | 124.22527 | 37074 ft | 520 kts | 46° |
| 2026-05-03 21:02 | 26.87331 | 124.28768 | 37079 ft | 520 kts | 46° |
| 2026-05-03 21:02 | 26.91930 | 124.34970 | 37076 ft | 521 kts | 46° |
| 2026-05-03 21:03 | 26.96553 | 124.41212 | 37076 ft | 521 kts | 46° |
| 2026-05-03 21:03 | 27.01192 | 124.47470 | 37076 ft | 520 kts | 46° |
| 2026-05-03 21:04 | 27.05820 | 124.53704 | 37070 ft | 520 kts | 46° |
| 2026-05-03 21:04 | 27.10456 | 124.59959 | 37102 ft | 523 kts | 46° |
| 2026-05-03 21:05 | 27.12785 | 124.63105 | 37210 ft | 525 kts | 46° |
| 2026-05-03 21:05 | 27.15117 | 124.66260 | 37479 ft | 524 kts | 46° |
| 2026-05-03 21:05 | 27.17432 | 124.69397 | 37799 ft | 521 kts | 46° |
| 2026-05-03 21:05 | 27.19738 | 124.72522 | 38051 ft | 520 kts | 45° |
| 2026-05-03 21:06 | 27.22047 | 124.75653 | 38292 ft | 519 kts | 45° |
| 2026-05-03 21:06 | 27.24345 | 124.78771 | 38552 ft | 518 kts | 45° |
| 2026-05-03 21:06 | 27.26642 | 124.81890 | 38745 ft | 518 kts | 45° |
| 2026-05-03 21:06 | 27.28937 | 124.85007 | 38898 ft | 518 kts | 45° |
| 2026-05-03 21:07 | 27.31201 | 124.88086 | 39034 ft | 517 kts | 45° |
| 2026-05-03 21:07 | 27.33496 | 124.91207 | 39070 ft | 518 kts | 45° |
| 2026-05-03 21:07 | 27.38125 | 124.97513 | 39083 ft | 518 kts | 45° |
| 2026-05-03 21:08 | 27.42678 | 125.03701 | 39080 ft | 516 kts | 45° |
| 2026-05-03 21:08 | 27.47275 | 125.09896 | 39075 ft | 514 kts | 45° |
| 2026-05-03 21:09 | 27.51114 | 125.15069 | 39079 ft | 513 kts | 45° |
| 2026-05-03 21:09 | 27.55685 | 125.21244 | 39073 ft | 512 kts | 45° |
| 2026-05-03 21:10 | 27.60242 | 125.27416 | 39084 ft | 512 kts | 45° |
| 2026-05-03 21:10 | 27.64756 | 125.33540 | 39079 ft | 511 kts | 45° |
| 2026-05-03 21:11 | 27.69303 | 125.39719 | 39084 ft | 512 kts | 45° |
| 2026-05-03 21:11 | 27.73854 | 125.45910 | 39087 ft | 512 kts | 45° |
| 2026-05-03 21:12 | 27.78409 | 125.52116 | 39077 ft | 513 kts | 45° |
| 2026-05-03 21:12 | 27.82971 | 125.58341 | 39078 ft | 514 kts | 45° |
| 2026-05-03 21:13 | 27.87532 | 125.64574 | 39079 ft | 515 kts | 45° |
| 2026-05-03 21:13 | 27.92102 | 125.70829 | 39079 ft | 516 kts | 45° |
| 2026-05-03 21:14 | 27.96675 | 125.77096 | 39073 ft | 517 kts | 45° |
| 2026-05-03 21:14 | 28.01249 | 125.83374 | 39070 ft | 517 kts | 45° |
| 2026-05-03 21:15 | 28.05805 | 125.89637 | 39074 ft | 518 kts | 45° |
| 2026-05-03 21:15 | 28.10383 | 125.95940 | 39077 ft | 518 kts | 45° |
| 2026-05-03 21:16 | 28.14965 | 126.02257 | 39071 ft | 519 kts | 45° |
| 2026-05-03 21:16 | 28.19544 | 126.08580 | 39069 ft | 519 kts | 46° |
| 2026-05-03 21:17 | 28.24125 | 126.14914 | 39074 ft | 519 kts | 46° |
| 2026-05-03 21:17 | 28.28704 | 126.21255 | 39072 ft | 519 kts | 46° |
| 2026-05-03 21:18 | 28.33279 | 126.27601 | 39075 ft | 520 kts | 46° |
| 2026-05-03 21:18 | 28.37851 | 126.33952 | 39070 ft | 520 kts | 46° |
| 2026-05-03 21:19 | 28.42424 | 126.40313 | 39071 ft | 520 kts | 46° |
| 2026-05-03 21:19 | 28.46995 | 126.46681 | 39070 ft | 520 kts | 46° |
| 2026-05-03 21:20 | 28.51563 | 126.53055 | 39073 ft | 520 kts | 46° |
| 2026-05-03 21:20 | 28.56132 | 126.59440 | 39071 ft | 521 kts | 46° |
| 2026-05-03 21:21 | 28.60709 | 126.65846 | 39073 ft | 521 kts | 46° |
| 2026-05-03 21:21 | 28.65285 | 126.72260 | 39072 ft | 522 kts | 46° |
| 2026-05-03 21:22 | 28.69836 | 126.78649 | 39068 ft | 523 kts | 46° |
| 2026-05-03 21:22 | 28.74421 | 126.85095 | 39072 ft | 524 kts | 46° |
| 2026-05-03 21:23 | 28.79013 | 126.91561 | 39071 ft | 525 kts | 46° |
| 2026-05-03 21:23 | 28.83603 | 126.98036 | 39068 ft | 525 kts | 46° |
| 2026-05-03 21:24 | 28.88195 | 127.04522 | 39070 ft | 526 kts | 46° |
| 2026-05-03 21:24 | 28.92798 | 127.11034 | 39064 ft | 527 kts | 47° |
| 2026-05-03 21:25 | 28.97401 | 127.17558 | 39064 ft | 528 kts | 47° |
| 2026-05-03 21:25 | 29.02012 | 127.24101 | 39064 ft | 528 kts | 47° |
| 2026-05-03 21:26 | 29.06618 | 127.30649 | 39068 ft | 529 kts | 47° |
| 2026-05-03 21:26 | 29.11229 | 127.37215 | 39059 ft | 529 kts | 47° |
| 2026-05-03 21:27 | 29.15835 | 127.43783 | 39062 ft | 530 kts | 47° |
| 2026-05-03 21:27 | 29.20417 | 127.50328 | 39057 ft | 530 kts | 47° |
| 2026-05-03 21:28 | 29.25024 | 127.56919 | 39060 ft | 530 kts | 47° |
| 2026-05-03 21:28 | 29.29631 | 127.63521 | 39055 ft | 530 kts | 47° |
| 2026-05-03 21:29 | 29.34237 | 127.70132 | 39055 ft | 531 kts | 47° |
| 2026-05-03 21:29 | 29.38847 | 127.76759 | 39051 ft | 531 kts | 47° |
| 2026-05-03 21:30 | 29.43444 | 127.83379 | 39050 ft | 530 kts | 47° |
| 2026-05-03 21:30 | 29.48035 | 127.90002 | 39049 ft | 530 kts | 47° |
| 2026-05-03 21:31 | 29.52628 | 127.96636 | 39044 ft | 530 kts | 47° |
| 2026-05-03 21:31 | 29.57226 | 128.03279 | 39042 ft | 530 kts | 47° |
| 2026-05-03 21:32 | 29.61783 | 128.09868 | 39042 ft | 530 kts | 47° |
| 2026-05-03 21:32 | 29.66366 | 128.16508 | 39045 ft | 530 kts | 47° |
| 2026-05-03 21:33 | 29.70943 | 128.23151 | 39042 ft | 530 kts | 47° |
| 2026-05-03 21:33 | 29.75517 | 128.29802 | 39038 ft | 530 kts | 47° |
| 2026-05-03 21:34 | 29.80082 | 128.36451 | 39038 ft | 529 kts | 47° |
| 2026-05-03 21:34 | 29.84651 | 128.43116 | 39038 ft | 529 kts | 47° |
| 2026-05-03 21:35 | 29.89207 | 128.49773 | 39037 ft | 529 kts | 47° |
| 2026-05-03 21:35 | 29.93764 | 128.56442 | 39034 ft | 529 kts | 48° |
| 2026-05-03 21:36 | 29.98319 | 128.63119 | 39033 ft | 529 kts | 48° |
| 2026-05-03 21:36 | 30.02864 | 128.69794 | 39031 ft | 530 kts | 48° |
| 2026-05-03 21:37 | 30.07384 | 128.76443 | 39025 ft | 530 kts | 48° |
| 2026-05-03 21:37 | 30.11936 | 128.83150 | 39025 ft | 530 kts | 48° |
| 2026-05-03 21:38 | 30.16483 | 128.89862 | 39027 ft | 531 kts | 48° |
| 2026-05-03 21:38 | 30.21033 | 128.96589 | 39021 ft | 531 kts | 48° |
| 2026-05-03 21:39 | 30.25587 | 129.03331 | 39015 ft | 532 kts | 48° |
| 2026-05-03 21:39 | 30.30136 | 129.10073 | 39018 ft | 532 kts | 48° |
| 2026-05-03 21:40 | 30.34688 | 129.16833 | 39018 ft | 532 kts | 48° |
| 2026-05-03 21:40 | 30.39238 | 129.23604 | 39014 ft | 533 kts | 48° |
| 2026-05-03 21:41 | 30.43790 | 129.30390 | 39010 ft | 533 kts | 48° |
| 2026-05-03 21:41 | 30.48334 | 129.37175 | 39014 ft | 533 kts | 49° |
| 2026-05-03 21:42 | 30.52848 | 129.43926 | 39003 ft | 533 kts | 49° |
| 2026-05-03 21:42 | 30.57391 | 129.50733 | 39008 ft | 533 kts | 49° |
| 2026-05-03 21:43 | 30.61935 | 129.57552 | 39001 ft | 533 kts | 49° |
| 2026-05-03 21:43 | 30.66470 | 129.64371 | 39001 ft | 533 kts | 49° |
| 2026-05-03 21:44 | 30.71005 | 129.71200 | 39002 ft | 534 kts | 49° |
| 2026-05-03 21:44 | 30.75537 | 129.78038 | 38998 ft | 534 kts | 49° |
| 2026-05-03 21:45 | 30.80037 | 129.84840 | 38994 ft | 534 kts | 49° |
| 2026-05-03 21:45 | 30.84546 | 129.91693 | 38989 ft | 535 kts | 51° |
| 2026-05-03 21:46 | 30.88600 | 129.98978 | 38996 ft | 536 kts | 56° |
| 2026-05-03 21:46 | 30.92463 | 130.06411 | 38984 ft | 537 kts | 56° |
| 2026-05-03 21:47 | 30.96339 | 130.13848 | 38981 ft | 537 kts | 56° |
| 2026-05-03 21:47 | 31.00251 | 130.21263 | 38981 ft | 537 kts | 56° |
| 2026-05-03 21:48 | 31.04169 | 130.28664 | 38980 ft | 536 kts | 56° |
| 2026-05-03 21:48 | 31.08079 | 130.36062 | 38974 ft | 536 kts | 56° |
| 2026-05-03 21:49 | 31.11985 | 130.43475 | 38971 ft | 535 kts | 56° |
| 2026-05-03 21:49 | 31.15882 | 130.50889 | 38968 ft | 535 kts | 56° |
| 2026-05-03 21:50 | 31.19768 | 130.58297 | 38977 ft | 534 kts | 57° |
| 2026-05-03 21:50 | 31.23615 | 130.65643 | 38964 ft | 534 kts | 57° |
| 2026-05-03 21:51 | 31.27487 | 130.73051 | 38960 ft | 533 kts | 57° |
| 2026-05-03 21:51 | 31.31350 | 130.80455 | 38962 ft | 533 kts | 57° |
| 2026-05-03 21:52 | 31.35200 | 130.87850 | 38958 ft | 532 kts | 57° |
| 2026-05-03 21:52 | 31.39040 | 130.95240 | 38954 ft | 532 kts | 57° |
| 2026-05-03 21:53 | 31.42886 | 131.02654 | 38944 ft | 532 kts | 57° |
| 2026-05-03 21:53 | 31.46716 | 131.10052 | 38948 ft | 531 kts | 57° |
| 2026-05-03 21:54 | 31.50542 | 131.17458 | 38948 ft | 532 kts | 57° |
| 2026-05-03 21:54 | 31.54370 | 131.24882 | 38934 ft | 532 kts | 57° |
| 2026-05-03 21:55 | 31.58198 | 131.32321 | 38919 ft | 533 kts | 57° |
| 2026-05-03 21:55 | 31.61376 | 131.38506 | 38902 ft | 533 kts | 57° |
| 2026-05-03 21:56 | 31.65199 | 131.45969 | 38890 ft | 533 kts | 57° |
| 2026-05-03 21:56 | 31.69019 | 131.53444 | 38885 ft | 534 kts | 57° |
| 2026-05-03 21:57 | 31.72838 | 131.60933 | 38886 ft | 534 kts | 58° |
| 2026-05-03 21:57 | 31.76626 | 131.68376 | 38890 ft | 534 kts | 58° |
| 2026-05-03 21:58 | 31.80461 | 131.75926 | 38886 ft | 535 kts | 58° |
| 2026-05-03 21:58 | 31.84245 | 131.83390 | 38905 ft | 535 kts | 58° |
| 2026-05-03 21:59 | 31.88077 | 131.90962 | 38908 ft | 535 kts | 58° |
| 2026-05-03 21:59 | 31.91885 | 131.98505 | 38904 ft | 536 kts | 58° |
| 2026-05-03 22:00 | 31.95658 | 132.05995 | 38892 ft | 536 kts | 58° |
| 2026-05-03 22:00 | 31.99462 | 132.13557 | 38887 ft | 537 kts | 58° |
| 2026-05-03 22:01 | 32.03269 | 132.21139 | 38899 ft | 538 kts | 58° |
| 2026-05-03 22:01 | 32.07075 | 132.28740 | 38879 ft | 539 kts | 58° |
| 2026-05-03 22:02 | 32.10921 | 132.36330 | 38878 ft | 538 kts | 53° |
| 2026-05-03 22:02 | 32.15779 | 132.42938 | 38868 ft | 529 kts | 34° |
| 2026-05-03 22:03 | 32.21518 | 132.48310 | 38879 ft | 526 kts | 32° |
| 2026-05-03 22:03 | 32.27295 | 132.53626 | 38869 ft | 527 kts | 32° |
| 2026-05-03 22:04 | 32.33047 | 132.59028 | 38866 ft | 528 kts | 33° |
| 2026-05-03 22:04 | 32.38780 | 132.64480 | 38866 ft | 528 kts | 33° |
| 2026-05-03 22:05 | 32.44504 | 132.69939 | 38863 ft | 529 kts | 33° |
| 2026-05-03 22:05 | 32.50197 | 132.75369 | 38863 ft | 529 kts | 33° |
| 2026-05-03 22:06 | 32.55936 | 132.80848 | 38857 ft | 530 kts | 33° |
| 2026-05-03 22:06 | 32.61670 | 132.86332 | 38859 ft | 530 kts | 33° |
| 2026-05-03 22:07 | 32.67411 | 132.91834 | 38856 ft | 530 kts | 33° |
| 2026-05-03 22:07 | 32.73142 | 132.97337 | 38853 ft | 530 kts | 34° |
| 2026-05-03 22:08 | 32.78244 | 133.03749 | 38861 ft | 539 kts | 52° |
| 2026-05-03 22:08 | 32.82522 | 133.11081 | 38857 ft | 539 kts | 53° |
| 2026-05-03 22:09 | 32.86769 | 133.18430 | 38852 ft | 539 kts | 53° |
| 2026-05-03 22:10 | 32.93234 | 133.29355 | 38846 ft | 538 kts | 52° |
| 2026-05-03 22:10 | 32.97515 | 133.36571 | 38849 ft | 537 kts | 52° |
| 2026-05-03 22:11 | 33.01809 | 133.43838 | 38841 ft | 536 kts | 52° |
| 2026-05-03 22:11 | 33.06092 | 133.51107 | 38845 ft | 535 kts | 52° |
| 2026-05-03 22:12 | 33.10373 | 133.58401 | 38323 ft | 541 kts | 52° |
| 2026-05-03 22:12 | 33.12522 | 133.62070 | 37722 ft | 540 kts | 52° |
| 2026-05-03 22:12 | 33.14669 | 133.65738 | 37172 ft | 538 kts | 53° |
| 2026-05-03 22:12 | 33.16806 | 133.69394 | 36590 ft | 537 kts | 53° |
| 2026-05-03 22:13 | 33.18947 | 133.73059 | 36006 ft | 537 kts | 53° |
| 2026-05-03 22:13 | 33.21087 | 133.76725 | 35279 ft | 540 kts | 53° |
| 2026-05-03 22:13 | 33.23235 | 133.80408 | 34683 ft | 541 kts | 53° |
| 2026-05-03 22:13 | 33.25391 | 133.84109 | 33974 ft | 544 kts | 53° |
| 2026-05-03 22:14 | 33.27552 | 133.87823 | 33241 ft | 546 kts | 53° |
| 2026-05-03 22:14 | 33.29717 | 133.91548 | 32626 ft | 544 kts | 53° |
| 2026-05-03 22:14 | 33.31867 | 133.95250 | 32159 ft | 539 kts | 53° |
| 2026-05-03 22:14 | 33.34000 | 133.98923 | 31685 ft | 535 kts | 53° |
| 2026-05-03 22:15 | 33.36115 | 134.02565 | 31207 ft | 532 kts | 53° |
| 2026-05-03 22:15 | 33.38216 | 134.06187 | 30738 ft | 528 kts | 53° |
| 2026-05-03 22:15 | 33.40301 | 134.09784 | 30269 ft | 525 kts | 53° |
| 2026-05-03 22:15 | 33.42349 | 134.13322 | 29796 ft | 522 kts | 53° |
| 2026-05-03 22:16 | 33.44411 | 134.16889 | 29211 ft | 520 kts | 53° |
| 2026-05-03 22:16 | 33.46460 | 134.20436 | 28727 ft | 515 kts | 52° |
| 2026-05-03 22:16 | 33.48477 | 134.23941 | 28229 ft | 507 kts | 52° |
| 2026-05-03 22:16 | 33.50467 | 134.27413 | 27761 ft | 502 kts | 53° |
| 2026-05-03 22:17 | 33.52428 | 134.30842 | 27308 ft | 497 kts | 53° |
| 2026-05-03 22:17 | 33.54378 | 134.34250 | 26826 ft | 494 kts | 53° |
| 2026-05-03 22:17 | 33.56312 | 134.37633 | 26368 ft | 491 kts | 53° |
| 2026-05-03 22:17 | 33.58278 | 134.40960 | 25901 ft | 485 kts | 46° |
| 2026-05-03 22:18 | 33.60742 | 134.43606 | 25440 ft | 469 kts | 25° |
| 2026-05-03 22:18 | 33.63594 | 134.45319 | 25018 ft | 451 kts | 11° |
| 2026-05-03 22:18 | 33.66569 | 134.46203 | 24553 ft | 432 kts | 356° |
| 2026-05-03 22:18 | 33.69507 | 134.46316 | 24131 ft | 418 kts | 349° |
| 2026-05-03 22:19 | 33.72411 | 134.46273 | 23666 ft | 416 kts | 348° |
| 2026-05-03 22:19 | 33.75298 | 134.46215 | 23196 ft | 413 kts | 348° |
| 2026-05-03 22:19 | 33.78161 | 134.46161 | 22730 ft | 410 kts | 348° |
| 2026-05-03 22:19 | 33.81005 | 134.46118 | 22251 ft | 407 kts | 349° |
| 2026-05-03 22:20 | 33.83832 | 134.46087 | 21801 ft | 404 kts | 349° |
| 2026-05-03 22:20 | 33.86629 | 134.46063 | 21384 ft | 402 kts | 349° |
| 2026-05-03 22:20 | 33.89386 | 134.46043 | 20919 ft | 399 kts | 349° |
| 2026-05-03 22:20 | 33.92141 | 134.46031 | 20513 ft | 394 kts | 349° |
| 2026-05-03 22:21 | 33.94873 | 134.46015 | 20106 ft | 392 kts | 349° |
| 2026-05-03 22:21 | 33.97597 | 134.45995 | 19689 ft | 391 kts | 349° |
| 2026-05-03 22:21 | 34.00315 | 134.45976 | 19267 ft | 390 kts | 349° |
| 2026-05-03 22:21 | 34.03026 | 134.45958 | 18837 ft | 389 kts | 349° |
| 2026-05-03 22:22 | 34.05723 | 134.45941 | 18423 ft | 387 kts | 349° |
| 2026-05-03 22:22 | 34.08412 | 134.45924 | 17975 ft | 386 kts | 350° |
| 2026-05-03 22:22 | 34.11102 | 134.45907 | 17505 ft | 384 kts | 350° |
| 2026-05-03 22:22 | 34.13762 | 134.45892 | 17068 ft | 382 kts | 350° |
| 2026-05-03 22:23 | 34.16406 | 134.45876 | 16642 ft | 379 kts | 350° |
| 2026-05-03 22:23 | 34.19040 | 134.45859 | 16235 ft | 377 kts | 350° |
| 2026-05-03 22:23 | 34.21659 | 134.45843 | 15832 ft | 375 kts | 350° |
| 2026-05-03 22:23 | 34.24263 | 134.45836 | 15433 ft | 376 kts | 353° |
| 2026-05-03 22:24 | 34.26873 | 134.46471 | 14980 ft | 394 kts | 16° |
| 2026-05-03 22:24 | 34.29221 | 134.48227 | 14606 ft | 401 kts | 36° |
| 2026-05-03 22:24 | 34.31310 | 134.50452 | 14204 ft | 400 kts | 39° |
| 2026-05-03 22:24 | 34.33356 | 134.52729 | 13796 ft | 399 kts | 40° |
| 2026-05-03 22:25 | 34.35390 | 134.55011 | 13340 ft | 398 kts | 40° |
| 2026-05-03 22:25 | 34.37405 | 134.57258 | 13087 ft | 390 kts | 40° |
| 2026-05-03 22:25 | 34.39402 | 134.59464 | 12720 ft | 386 kts | 39° |
| 2026-05-03 22:25 | 34.41380 | 134.61634 | 12325 ft | 383 kts | 39° |
| 2026-05-03 22:26 | 34.43349 | 134.63784 | 11928 ft | 380 kts | 39° |
| 2026-05-03 22:26 | 34.45283 | 134.65892 | 11547 ft | 378 kts | 39° |
| 2026-05-03 22:26 | 34.47232 | 134.68017 | 11154 ft | 375 kts | 39° |
| 2026-05-03 22:26 | 34.49166 | 134.70126 | 10752 ft | 373 kts | 40° |
| 2026-05-03 22:27 | 34.51078 | 134.72215 | 10507 ft | 365 kts | 40° |
| 2026-05-03 22:27 | 34.52909 | 134.74216 | 10351 ft | 355 kts | 40° |
| 2026-05-03 22:27 | 34.54721 | 134.76198 | 10192 ft | 346 kts | 40° |
| 2026-05-03 22:27 | 34.56484 | 134.78126 | 10036 ft | 337 kts | 40° |
| 2026-05-03 22:28 | 34.58199 | 134.80004 | 9999 ft | 325 kts | 40° |
| 2026-05-03 22:28 | 34.59871 | 134.81884 | 9468 ft | 332 kts | 47° |
| 2026-05-03 22:28 | 34.61058 | 134.84263 | 9073 ft | 330 kts | 72° |
| 2026-05-03 22:28 | 34.61428 | 134.86959 | 8747 ft | 321 kts | 94° |
| 2026-05-03 22:29 | 34.61374 | 134.89647 | 8430 ft | 317 kts | 96° |
| 2026-05-03 22:29 | 34.61286 | 134.92318 | 8107 ft | 315 kts | 96° |
| 2026-05-03 22:29 | 34.61211 | 134.94970 | 7789 ft | 313 kts | 96° |
| 2026-05-03 22:29 | 34.61150 | 134.97599 | 7481 ft | 311 kts | 95° |
| 2026-05-03 22:30 | 34.61093 | 135.00225 | 7164 ft | 309 kts | 95° |
| 2026-05-03 22:30 | 34.61038 | 135.02825 | 6855 ft | 307 kts | 95° |
| 2026-05-03 22:30 | 34.60985 | 135.05400 | 6548 ft | 303 kts | 96° |
| 2026-05-03 22:30 | 34.60933 | 135.07884 | 6246 ft | 293 kts | 96° |
| 2026-05-03 22:31 | 34.60882 | 135.10321 | 5938 ft | 285 kts | 96° |
| 2026-05-03 22:31 | 34.60830 | 135.12721 | 5645 ft | 279 kts | 96° |
| 2026-05-03 22:31 | 34.60778 | 135.15069 | 5374 ft | 278 kts | 96° |
| 2026-05-03 22:31 | 34.60726 | 135.17369 | 5197 ft | 272 kts | 95° |
| 2026-05-03 22:32 | 34.60676 | 135.19663 | 5066 ft | 265 kts | 96° |
| 2026-05-03 22:32 | 34.60631 | 135.21834 | 4989 ft | 254 kts | 96° |
| 2026-05-03 22:32 | 34.60592 | 135.23920 | 4889 ft | 241 kts | 96° |
| 2026-05-03 22:32 | 34.60555 | 135.25903 | 4774 ft | 229 kts | 96° |
| 2026-05-03 22:33 | 34.60519 | 135.27787 | 4672 ft | 218 kts | 96° |
| 2026-05-03 22:33 | 34.60481 | 135.29618 | 4506 ft | 215 kts | 96° |
| 2026-05-03 22:33 | 34.60445 | 135.31404 | 4318 ft | 208 kts | 96° |
| 2026-05-03 22:33 | 34.60409 | 135.33153 | 4145 ft | 206 kts | 96° |
| 2026-05-03 22:34 | 34.60372 | 135.34894 | 3946 ft | 207 kts | 97° |
| 2026-05-03 22:34 | 34.59997 | 135.36516 | 3705 ft | 195 kts | 133° |
| 2026-05-03 22:34 | 34.58979 | 135.37456 | 3511 ft | 180 kts | 165° |
| 2026-05-03 22:34 | 34.57777 | 135.37677 | 3332 ft | 173 kts | 187° |
| 2026-05-03 22:35 | 34.56569 | 135.37637 | 3124 ft | 174 kts | 187° |
| 2026-05-03 22:35 | 34.55426 | 135.37299 | 2903 ft | 167 kts | 207° |
| 2026-05-03 22:35 | 34.54362 | 135.36773 | 2710 ft | 163 kts | 205° |
| 2026-05-03 22:35 | 34.53320 | 135.36290 | 2535 ft | 158 kts | 205° |
| 2026-05-03 22:36 | 34.52310 | 135.35823 | 2337 ft | 151 kts | 205° |
| 2026-05-03 22:36 | 34.51377 | 135.35391 | 2152 ft | 140 kts | 205° |
| 2026-05-03 22:36 | 34.50464 | 135.34968 | 2013 ft | 139 kts | 205° |
| 2026-05-03 22:36 | 34.49615 | 135.34506 | 1830 ft | 130 kts | 219° |
| 2026-05-03 22:37 | 34.49023 | 135.33674 | 1678 ft | 132 kts | 231° |
| 2026-05-03 22:37 | 34.48400 | 135.32838 | 1403 ft | 136 kts | 230° |
| 2026-05-03 22:37 | 34.47807 | 135.31985 | 1213 ft | 129 kts | 230° |
| 2026-05-03 22:37 | 34.47246 | 135.31157 | 1059 ft | 128 kts | 230° |
| 2026-05-03 22:38 | 34.46687 | 135.30323 | 911 ft | 127 kts | 231° |
| 2026-05-03 22:38 | 34.46664 | 135.30288 | 900 ft | 127 kts | 231° |
| 2026-05-03 22:38 | 34.46240 | 135.29656 | 809 ft | 130 kts | 239° |
| 2026-05-03 22:39 | 34.45952 | 135.29175 | 726 ft | 134 kts | 236° |
| 2026-05-03 22:39 | 34.45349 | 135.28316 | 564 ft | 132 kts | 235° |
| 2026-05-03 22:39 | 34.44778 | 135.27466 | 398 ft | 130 kts | 236° |
| 2026-05-03 22:39 | 34.44218 | 135.26627 | 217 ft | 129 kts | 237° |
| 2026-05-03 22:40 | 34.43671 | 135.25792 | 129 ft | 128 kts | 238° |
| 2026-05-03 22:40 | 34.43095 | 135.24970 | 576 ft | 132 kts | 223° |
| 2026-05-03 22:40 | 34.42695 | 135.24506 | 1041 ft | 123 kts | 209° |
| 2026-05-03 22:41 | 34.42104 | 135.23938 | 2036 ft | 108 kts | 230° |
| 2026-05-03 22:41 | 34.41751 | 135.23109 | 2720 ft | 105 kts | 247° |
| 2026-05-03 22:41 | 34.41668 | 135.22312 | 3453 ft | 93 kts | 261° |
| 2026-05-03 22:42 | 34.41601 | 135.21501 | 3787 ft | 97 kts | 233° |
| 2026-05-03 22:42 | 34.41010 | 135.21114 | 4088 ft | 107 kts | 200° |
| 2026-05-03 22:42 | 34.40341 | 135.20468 | 3988 ft | 142 kts | 229° |
| 2026-05-03 22:42 | 34.39636 | 135.19472 | 3983 ft | 177 kts | 226° |
| 2026-05-03 22:43 | 34.38745 | 135.18246 | 3995 ft | 210 kts | 227° |
| 2026-05-03 22:43 | 34.37722 | 135.16855 | 3996 ft | 230 kts | 226° |
| 2026-05-03 22:43 | 34.36698 | 135.15264 | 3996 ft | 245 kts | 232° |
| 2026-05-03 22:43 | 34.35696 | 135.13562 | 3973 ft | 251 kts | 234° |
| 2026-05-03 22:44 | 34.35107 | 135.11577 | 3996 ft | 256 kts | 262° |
| 2026-05-03 22:44 | 34.35326 | 135.09417 | 4004 ft | 265 kts | 284° |
| 2026-05-03 22:44 | 34.36219 | 135.07448 | 3986 ft | 274 kts | 306° |
| 2026-05-03 22:44 | 34.37165 | 135.06401 | 4008 ft | 280 kts | 322° |
| 2026-05-03 22:45 | 34.38988 | 135.05516 | 4003 ft | 289 kts | 349° |
| 2026-05-03 22:45 | 34.40995 | 135.05716 | 4006 ft | 293 kts | 17° |
| 2026-05-03 22:45 | 34.42827 | 135.06792 | 4008 ft | 294 kts | 31° |
| 2026-05-03 22:45 | 34.44568 | 135.08102 | 3988 ft | 294 kts | 33° |
| 2026-05-03 22:46 | 34.46286 | 135.09436 | 3979 ft | 293 kts | 33° |
| 2026-05-03 22:46 | 34.48001 | 135.10760 | 3982 ft | 292 kts | 33° |
| 2026-05-03 22:46 | 34.49715 | 135.12071 | 3989 ft | 291 kts | 32° |
| 2026-05-03 22:46 | 34.51425 | 135.13367 | 3995 ft | 290 kts | 32° |
| 2026-05-03 22:47 | 34.53139 | 135.14658 | 3982 ft | 290 kts | 32° |
| 2026-05-03 22:47 | 34.54854 | 135.15946 | 3966 ft | 289 kts | 32° |
| 2026-05-03 22:47 | 34.56562 | 135.17227 | 3969 ft | 289 kts | 32° |
| 2026-05-03 22:47 | 34.58270 | 135.18508 | 3962 ft | 288 kts | 32° |
| 2026-05-03 22:48 | 34.59762 | 135.20073 | 3954 ft | 281 kts | 57° |
| 2026-05-03 22:48 | 34.60525 | 135.22184 | 3981 ft | 271 kts | 82° |
| 2026-05-03 22:48 | 34.60623 | 135.24435 | 3989 ft | 266 kts | 96° |
| 2026-05-03 22:48 | 34.60564 | 135.26707 | 3767 ft | 274 kts | 96° |
| 2026-05-03 22:49 | 34.60505 | 135.28993 | 3715 ft | 266 kts | 96° |
| 2026-05-03 22:49 | 34.60455 | 135.31205 | 3506 ft | 260 kts | 96° |
| 2026-05-03 22:49 | 34.60410 | 135.33347 | 3283 ft | 246 kts | 96° |
| 2026-05-03 22:49 | 34.60141 | 135.35272 | 3027 ft | 223 kts | 121° |
| 2026-05-03 22:50 | 34.59229 | 135.36646 | 2787 ft | 200 kts | 148° |
| 2026-05-03 22:50 | 34.58059 | 135.37413 | 2529 ft | 184 kts | 166° |
| 2026-05-03 22:50 | 34.56848 | 135.37645 | 2299 ft | 169 kts | 184° |
| 2026-05-03 22:50 | 34.55700 | 135.37437 | 2140 ft | 169 kts | 202° |
| 2026-05-03 22:51 | 34.54618 | 135.36900 | 1972 ft | 165 kts | 201° |
| 2026-05-03 22:51 | 34.53592 | 135.36421 | 1819 ft | 150 kts | 201° |
| 2026-05-03 22:51 | 34.52656 | 135.35985 | 1650 ft | 138 kts | 200° |
| 2026-05-03 22:51 | 34.51791 | 135.35583 | 1592 ft | 131 kts | 200° |
| 2026-05-03 22:52 | 34.50925 | 135.35181 | 1493 ft | 133 kts | 200° |
| 2026-05-03 22:52 | 34.50054 | 135.34776 | 1366 ft | 136 kts | 201° |
| 2026-05-03 22:52 | 34.49289 | 135.34102 | 1242 ft | 139 kts | 229° |
| 2026-05-03 22:52 | 34.48660 | 135.33191 | 1213 ft | 141 kts | 225° |
| 2026-05-03 22:53 | 34.48028 | 135.32310 | 1194 ft | 136 kts | 226° |
| 2026-05-03 22:53 | 34.47422 | 135.31419 | 1062 ft | 140 kts | 227° |
| 2026-05-03 22:53 | 34.46805 | 135.30500 | 918 ft | 139 kts | 230° |
| 2026-05-03 22:53 | 34.46587 | 135.30173 | 867 ft | 138 kts | 231° |
| 2026-05-03 22:54 | 34.46519 | 135.30073 | 847 ft | 137 kts | 231° |
| 2026-05-03 22:54 | 34.45932 | 135.29191 | 700 ft | 131 kts | 232° |
| 2026-05-03 22:54 | 34.45357 | 135.28333 | 570 ft | 133 kts | 234° |
| 2026-05-03 22:54 | 34.44772 | 135.27456 | 385 ft | 134 kts | 233° |
| 2026-05-03 22:55 | 34.44195 | 135.26591 | 211 ft | 132 kts | 233° |
| 2026-05-03 22:55 | 34.43613 | 135.25726 | 39 ft | 132 kts | 233° |
| 2026-05-03 22:55 | 34.43112 | 135.24970 | 17 ft | 89 kts | 227° |
| 2026-05-03 22:55 | 34.42845 | 135.24574 | 14 ft | 32 kts | 231° |
| 2026-05-03 22:56 | 34.42754 | 135.24402 | 14 ft | 20 kts | 246° |
| 2026-05-03 22:56 | 34.42727 | 135.24272 | 15 ft | 9 kts | 262° |
| 2026-05-03 22:56 | 34.42718 | 135.24201 | 18 ft | 8 kts | 262° |
| 2026-05-03 22:56 | 34.42727 | 135.24136 | 18 ft | 8 kts | 311° |
| 2026-05-03 22:57 | 34.42771 | 135.24095 | 18 ft | 8 kts | 322° |
| 2026-05-03 22:57 | 34.42813 | 135.24054 | 19 ft | 8 kts | 321° |
| 2026-05-03 22:57 | 34.42853 | 135.24015 | 20 ft | 7 kts | 321° |
| 2026-05-03 22:57 | 34.42900 | 135.24004 | 18 ft | 7 kts | 17° |
| 2026-05-03 22:58 | 34.42936 | 135.24046 | 18 ft | 7 kts | 51° |
| 2026-05-03 22:58 | 34.42966 | 135.24092 | 18 ft | 7 kts | 51° |
| 2026-05-03 22:58 | 34.42998 | 135.24139 | 18 ft | 8 kts | 51° |
| 2026-05-03 22:58 | 34.43036 | 135.24196 | 18 ft | 10 kts | 51° |
| 2026-05-03 22:59 | 34.43083 | 135.24267 | 18 ft | 12 kts | 51° |
| 2026-05-03 22:59 | 34.43138 | 135.24347 | 18 ft | 13 kts | 51° |
| 2026-05-03 22:59 | 34.43197 | 135.24436 | 18 ft | 14 kts | 51° |
| 2026-05-03 22:59 | 34.43257 | 135.24526 | 18 ft | 14 kts | 51° |
| 2026-05-03 23:00 | 34.43311 | 135.24604 | 19 ft | 4 kts | 36° |
| 2026-05-03 23:00 | 34.43338 | 135.24598 | 18 ft | 4 kts | 320° |
| 2026-05-03 23:00 | 34.43357 | 135.24570 | 20 ft | 5 kts | 315° |
| 2026-05-03 23:00 | 34.43375 | 135.24552 | 18 ft | 1 kts | 321° |
| 2026-05-03 23:01 | 34.43382 | 135.24545 | 20 ft | 1 kts | 321° |
| 2026-05-03 23:01 | 34.43385 | 135.24543 | 20 ft | 0 kts | 321° |